EJU97 LEPA-LPPT
Flight info
| Callsign | EJU97 |
|---|---|
| Flight time | N/A |
| Altitude | 35000 |
| Route | EPAMA N733 ARGOR/N0456F370 N733 VLC/N0367F130 N733 CJN N975 CCS DCT UPULO |
| Aircraft | A320/M-SDE3FGHIRWY/LB1 |
Departure
| Time | 2026-05-07 09:06 |
|---|---|
| Airport | Palma de Mallorca Airport (LEPA) |
Arrival
| Time | N/A |
|---|---|
| Airport | Lisbon Humberto Delgado Airport (LPPT) |
| Time | Latitude | Longitude | Altitude | Speed | Heading |
|---|---|---|---|---|---|
| 2026-05-07 08:41 | 39.54899 | 2.73790 | 39 ft | 0 kts | 249° |
| 2026-05-07 08:44 | 39.54902 | 2.73802 | 37 ft | 0 kts | 249° |
| 2026-05-07 08:58 | 39.54905 | 2.73812 | 38 ft | 4 kts | 249° |
| 2026-05-07 08:58 | 39.54915 | 2.73845 | 38 ft | 4 kts | 249° |
| 2026-05-07 08:58 | 39.54923 | 2.73872 | 37 ft | 4 kts | 245° |
| 2026-05-07 08:58 | 39.54938 | 2.73898 | 38 ft | 4 kts | 210° |
| 2026-05-07 08:59 | 39.54961 | 2.73906 | 36 ft | 4 kts | 167° |
| 2026-05-07 08:59 | 39.54984 | 2.73893 | 38 ft | 4 kts | 149° |
| 2026-05-07 08:59 | 39.55005 | 2.73877 | 35 ft | 1 kts | 149° |
| 2026-05-07 08:59 | 39.55006 | 2.73876 | 35 ft | 0 kts | 149° |
| 2026-05-07 09:01 | 39.55006 | 2.73877 | 38 ft | 0 kts | 149° |
| 2026-05-07 09:02 | 39.54962 | 2.73910 | 38 ft | 13 kts | 149° |
| 2026-05-07 09:02 | 39.54884 | 2.73972 | 38 ft | 14 kts | 149° |
| 2026-05-07 09:02 | 39.54818 | 2.73998 | 38 ft | 7 kts | 202° |
| 2026-05-07 09:02 | 39.54792 | 2.73956 | 38 ft | 5 kts | 233° |
| 2026-05-07 09:03 | 39.54760 | 2.73946 | 38 ft | 5 kts | 167° |
| 2026-05-07 09:03 | 39.54715 | 2.73958 | 38 ft | 10 kts | 190° |
| 2026-05-07 09:03 | 39.54664 | 2.73866 | 38 ft | 13 kts | 240° |
| 2026-05-07 09:03 | 39.54621 | 2.73773 | 38 ft | 12 kts | 238° |
| 2026-05-07 09:04 | 39.54580 | 2.73691 | 38 ft | 10 kts | 232° |
| 2026-05-07 09:04 | 39.54526 | 2.73690 | 37 ft | 8 kts | 146° |
| 2026-05-07 09:04 | 39.54488 | 2.73723 | 38 ft | 1 kts | 149° |
| 2026-05-07 09:05 | 39.54471 | 2.73736 | 37 ft | 12 kts | 149° |
| 2026-05-07 09:05 | 39.54426 | 2.73808 | 38 ft | 9 kts | 62° |
| 2026-05-07 09:05 | 39.54469 | 2.73895 | 36 ft | 22 kts | 59° |
| 2026-05-07 09:06 | 39.54679 | 2.74339 | 38 ft | 92 kts | 58° |
| 2026-05-07 09:06 | 39.55117 | 2.75267 | 41 ft | 148 kts | 59° |
| 2026-05-07 09:06 | 39.55663 | 2.76432 | 632 ft | 148 kts | 59° |
| 2026-05-07 09:06 | 39.56187 | 2.77566 | 1392 ft | 146 kts | 59° |
| 2026-05-07 09:07 | 39.56735 | 2.78766 | 1804 ft | 164 kts | 61° |
| 2026-05-07 09:07 | 39.57332 | 2.80102 | 2250 ft | 178 kts | 62° |
| 2026-05-07 09:07 | 39.57959 | 2.81537 | 2742 ft | 191 kts | 63° |
| 2026-05-07 09:07 | 39.58658 | 2.83136 | 3095 ft | 213 kts | 62° |
| 2026-05-07 09:08 | 39.59405 | 2.84772 | 3937 ft | 212 kts | 60° |
| 2026-05-07 09:08 | 39.60181 | 2.86406 | 4751 ft | 214 kts | 60° |
| 2026-05-07 09:08 | 39.60985 | 2.88046 | 5526 ft | 216 kts | 58° |
| 2026-05-07 09:08 | 39.61834 | 2.89663 | 6316 ft | 219 kts | 50° |
| 2026-05-07 09:09 | 39.63122 | 2.90755 | 6907 ft | 230 kts | 15° |
| 2026-05-07 09:09 | 39.64733 | 2.90728 | 7521 ft | 239 kts | 341° |
| 2026-05-07 09:09 | 39.66111 | 2.89526 | 8155 ft | 245 kts | 306° |
| 2026-05-07 09:09 | 39.66870 | 2.87562 | 8902 ft | 245 kts | 289° |
| 2026-05-07 09:10 | 39.67417 | 2.85495 | 9666 ft | 247 kts | 284° |
| 2026-05-07 09:10 | 39.67863 | 2.83339 | 10364 ft | 248 kts | 279° |
| 2026-05-07 09:10 | 39.68196 | 2.81145 | 11090 ft | 248 kts | 277° |
| 2026-05-07 09:10 | 39.68420 | 2.78917 | 11810 ft | 249 kts | 273° |
| 2026-05-07 09:11 | 39.68548 | 2.76676 | 12571 ft | 250 kts | 273° |
| 2026-05-07 09:11 | 39.68835 | 2.74430 | 13223 ft | 258 kts | 281° |
| 2026-05-07 09:11 | 39.69407 | 2.72104 | 13445 ft | 283 kts | 290° |
| 2026-05-07 09:11 | 39.70233 | 2.69663 | 13639 ft | 307 kts | 291° |
| 2026-05-07 09:12 | 39.71128 | 2.67030 | 13793 ft | 330 kts | 291° |
| 2026-05-07 09:12 | 39.72087 | 2.64204 | 13903 ft | 353 kts | 291° |
| 2026-05-07 09:12 | 39.73092 | 2.61249 | 14041 ft | 373 kts | 292° |
| 2026-05-07 09:12 | 39.74159 | 2.58119 | 14402 ft | 383 kts | 292° |
| 2026-05-07 09:13 | 39.75244 | 2.54938 | 14993 ft | 386 kts | 292° |
| 2026-05-07 09:13 | 39.76332 | 2.51738 | 15625 ft | 388 kts | 291° |
| 2026-05-07 09:13 | 39.77423 | 2.48518 | 16265 ft | 390 kts | 291° |
| 2026-05-07 09:13 | 39.78512 | 2.45286 | 16905 ft | 392 kts | 291° |
| 2026-05-07 09:14 | 39.79610 | 2.42023 | 17491 ft | 395 kts | 291° |
| 2026-05-07 09:14 | 39.80717 | 2.38733 | 18098 ft | 398 kts | 291° |
| 2026-05-07 09:14 | 39.81603 | 2.35332 | 18627 ft | 397 kts | 280° |
| 2026-05-07 09:14 | 39.81948 | 2.31831 | 19130 ft | 396 kts | 269° |
| 2026-05-07 09:15 | 39.81750 | 2.28272 | 19661 ft | 394 kts | 258° |
| 2026-05-07 09:15 | 39.81050 | 2.24824 | 20137 ft | 395 kts | 251° |
| 2026-05-07 09:15 | 39.80238 | 2.21402 | 20639 ft | 396 kts | 251° |
| 2026-05-07 09:15 | 39.79429 | 2.17974 | 21150 ft | 397 kts | 251° |
| 2026-05-07 09:16 | 39.78620 | 2.14537 | 21639 ft | 398 kts | 251° |
| 2026-05-07 09:16 | 39.77809 | 2.11098 | 22129 ft | 398 kts | 251° |
| 2026-05-07 09:16 | 39.76998 | 2.07658 | 22594 ft | 398 kts | 251° |
| 2026-05-07 09:16 | 39.76196 | 2.04258 | 23024 ft | 400 kts | 251° |
| 2026-05-07 09:17 | 39.75380 | 2.00803 | 23438 ft | 401 kts | 251° |
| 2026-05-07 09:17 | 39.74560 | 1.97332 | 23811 ft | 402 kts | 251° |
| 2026-05-07 09:17 | 39.73737 | 1.93853 | 24150 ft | 403 kts | 251° |
| 2026-05-07 09:17 | 39.72910 | 1.90368 | 24500 ft | 405 kts | 251° |
| 2026-05-07 09:18 | 39.72077 | 1.86866 | 24799 ft | 407 kts | 250° |
| 2026-05-07 09:18 | 39.71238 | 1.83353 | 25101 ft | 408 kts | 250° |
| 2026-05-07 09:18 | 39.70395 | 1.79829 | 25398 ft | 409 kts | 250° |
| 2026-05-07 09:18 | 39.69559 | 1.76340 | 25689 ft | 411 kts | 250° |
| 2026-05-07 09:19 | 39.68710 | 1.72796 | 25969 ft | 412 kts | 250° |
| 2026-05-07 09:19 | 39.67858 | 1.69243 | 26250 ft | 413 kts | 250° |
| 2026-05-07 09:19 | 39.67000 | 1.65675 | 26518 ft | 414 kts | 250° |
| 2026-05-07 09:19 | 39.66139 | 1.62103 | 26781 ft | 415 kts | 250° |
| 2026-05-07 09:20 | 39.65277 | 1.58524 | 27032 ft | 416 kts | 250° |
| 2026-05-07 09:20 | 39.64412 | 1.54936 | 27274 ft | 417 kts | 250° |
| 2026-05-07 09:20 | 39.63547 | 1.51350 | 27622 ft | 416 kts | 250° |
| 2026-05-07 09:20 | 39.62681 | 1.47775 | 27965 ft | 414 kts | 249° |
| 2026-05-07 09:21 | 39.61817 | 1.44218 | 28306 ft | 413 kts | 249° |
| 2026-05-07 09:21 | 39.60967 | 1.40719 | 28663 ft | 412 kts | 250° |
| 2026-05-07 09:21 | 39.60308 | 1.37100 | 29013 ft | 414 kts | 257° |
| 2026-05-07 09:21 | 39.60051 | 1.33368 | 29359 ft | 416 kts | 261° |
| 2026-05-07 09:22 | 39.59851 | 1.29632 | 29710 ft | 415 kts | 261° |
| 2026-05-07 09:22 | 39.59649 | 1.25909 | 30062 ft | 413 kts | 261° |
| 2026-05-07 09:22 | 39.59443 | 1.22196 | 30372 ft | 412 kts | 261° |
| 2026-05-07 09:22 | 39.59236 | 1.18499 | 30671 ft | 411 kts | 261° |
| 2026-05-07 09:23 | 39.59116 | 1.16378 | 30839 ft | 410 kts | 261° |
| 2026-05-07 09:23 | 39.59026 | 1.14787 | 30967 ft | 410 kts | 261° |
| 2026-05-07 09:23 | 39.58815 | 1.11150 | 31239 ft | 410 kts | 261° |
| 2026-05-07 09:23 | 39.58786 | 1.10655 | 31272 ft | 410 kts | 261° |
| 2026-05-07 09:24 | 39.58674 | 1.08741 | 31412 ft | 410 kts | 261° |
| 2026-05-07 09:24 | 39.58648 | 1.08295 | 31440 ft | 410 kts | 261° |
| 2026-05-07 09:24 | 39.58431 | 1.04611 | 31734 ft | 410 kts | 261° |
| 2026-05-07 09:24 | 39.58219 | 1.00929 | 32019 ft | 409 kts | 261° |
| 2026-05-07 09:25 | 39.58007 | 0.97259 | 32328 ft | 408 kts | 261° |
| 2026-05-07 09:25 | 39.57793 | 0.93596 | 32626 ft | 407 kts | 261° |
| 2026-05-07 09:25 | 39.57579 | 0.89936 | 32919 ft | 406 kts | 260° |
| 2026-05-07 09:25 | 39.57366 | 0.86349 | 33249 ft | 404 kts | 260° |
| 2026-05-07 09:26 | 39.57149 | 0.82727 | 33576 ft | 402 kts | 260° |
| 2026-05-07 09:26 | 39.56930 | 0.79120 | 33889 ft | 401 kts | 260° |
| 2026-05-07 09:26 | 39.56714 | 0.75523 | 34201 ft | 400 kts | 260° |
| 2026-05-07 09:26 | 39.56497 | 0.71931 | 34437 ft | 400 kts | 260° |
| 2026-05-07 09:27 | 39.56277 | 0.68337 | 34663 ft | 400 kts | 260° |
| 2026-05-07 09:27 | 39.56056 | 0.64750 | 34878 ft | 400 kts | 261° |
| 2026-05-07 09:27 | 39.55606 | 0.57529 | 34994 ft | 405 kts | 261° |
| 2026-05-07 09:28 | 39.55382 | 0.53940 | 34991 ft | 405 kts | 261° |
| 2026-05-07 09:28 | 39.54928 | 0.46650 | 34991 ft | 406 kts | 261° |
| 2026-05-07 09:29 | 39.54469 | 0.39361 | 34994 ft | 406 kts | 261° |
| 2026-05-07 09:29 | 39.54004 | 0.32067 | 34993 ft | 407 kts | 260° |
| 2026-05-07 09:30 | 39.53540 | 0.24811 | 35005 ft | 407 kts | 260° |
| 2026-05-07 09:30 | 39.53069 | 0.17504 | 34999 ft | 407 kts | 260° |
| 2026-05-07 09:31 | 39.52584 | 0.10202 | 35003 ft | 407 kts | 260° |
| 2026-05-07 09:31 | 39.52097 | 0.02896 | 35002 ft | 407 kts | 260° |
| 2026-05-07 09:32 | 39.51607 | -0.04365 | 35003 ft | 408 kts | 260° |
| 2026-05-07 09:32 | 39.51111 | -0.11694 | 34990 ft | 409 kts | 260° |
| 2026-05-07 09:33 | 39.50615 | -0.19049 | 34986 ft | 410 kts | 260° |
| 2026-05-07 09:33 | 39.50113 | -0.26411 | 34988 ft | 411 kts | 260° |
| 2026-05-07 09:34 | 39.49598 | -0.33783 | 34989 ft | 411 kts | 260° |
| 2026-05-07 09:34 | 39.49078 | -0.41114 | 34991 ft | 412 kts | 260° |
| 2026-05-07 09:35 | 39.49418 | -0.48565 | 34990 ft | 425 kts | 278° |
| 2026-05-07 09:35 | 39.51829 | -0.55674 | 34991 ft | 439 kts | 293° |
| 2026-05-07 09:36 | 39.54872 | -0.62527 | 34990 ft | 439 kts | 292° |
| 2026-05-07 09:36 | 39.57905 | -0.69400 | 35006 ft | 439 kts | 293° |
| 2026-05-07 09:37 | 39.60910 | -0.76242 | 34997 ft | 439 kts | 293° |
| 2026-05-07 09:37 | 39.63937 | -0.83144 | 35000 ft | 441 kts | 293° |
| 2026-05-07 09:38 | 39.66971 | -0.90059 | 34992 ft | 441 kts | 293° |
| 2026-05-07 09:38 | 39.70005 | -0.96998 | 34990 ft | 442 kts | 293° |
| 2026-05-07 09:39 | 39.73018 | -1.03902 | 34989 ft | 442 kts | 293° |
| 2026-05-07 09:39 | 39.76045 | -1.10861 | 34986 ft | 443 kts | 293° |
| 2026-05-07 09:40 | 39.79080 | -1.17828 | 35006 ft | 443 kts | 294° |
| 2026-05-07 09:40 | 39.82107 | -1.24766 | 35006 ft | 444 kts | 294° |
| 2026-05-07 09:41 | 39.85141 | -1.31764 | 35005 ft | 444 kts | 294° |
| 2026-05-07 09:41 | 39.88167 | -1.38783 | 35002 ft | 445 kts | 294° |
| 2026-05-07 09:42 | 39.91190 | -1.45810 | 35000 ft | 445 kts | 294° |
| 2026-05-07 09:42 | 39.94218 | -1.52844 | 35024 ft | 445 kts | 294° |
| 2026-05-07 09:43 | 39.97229 | -1.59847 | 35010 ft | 446 kts | 294° |
| 2026-05-07 09:43 | 40.00252 | -1.66916 | 35002 ft | 447 kts | 294° |
| 2026-05-07 09:44 | 40.03271 | -1.74000 | 34993 ft | 447 kts | 294° |
| 2026-05-07 09:44 | 40.06292 | -1.81094 | 34992 ft | 447 kts | 294° |
| 2026-05-07 09:45 | 40.09294 | -1.88151 | 34984 ft | 447 kts | 294° |
| 2026-05-07 09:45 | 40.12316 | -1.95266 | 34989 ft | 448 kts | 294° |
| 2026-05-07 09:46 | 40.15336 | -2.02404 | 34967 ft | 450 kts | 294° |
| 2026-05-07 09:46 | 40.18381 | -2.09552 | 34964 ft | 451 kts | 294° |
| 2026-05-07 09:47 | 40.21443 | -2.16714 | 34954 ft | 451 kts | 294° |
| 2026-05-07 09:47 | 40.24450 | -2.23851 | 34964 ft | 451 kts | 294° |
| 2026-05-07 09:48 | 40.27458 | -2.31063 | 34974 ft | 452 kts | 294° |
| 2026-05-07 09:48 | 40.30469 | -2.38290 | 34963 ft | 452 kts | 294° |
| 2026-05-07 09:49 | 40.33486 | -2.45525 | 34958 ft | 453 kts | 294° |
| 2026-05-07 09:49 | 40.35555 | -2.53107 | 34954 ft | 440 kts | 275° |
| 2026-05-07 09:50 | 40.35621 | -2.61001 | 34954 ft | 430 kts | 257° |
| 2026-05-07 09:50 | 40.34151 | -2.68552 | 34974 ft | 427 kts | 251° |
| 2026-05-07 09:51 | 40.32524 | -2.76039 | 34956 ft | 427 kts | 251° |
| 2026-05-07 09:51 | 40.30903 | -2.83485 | 34957 ft | 428 kts | 251° |
| 2026-05-07 09:52 | 40.29268 | -2.90983 | 34951 ft | 428 kts | 251° |
| 2026-05-07 09:52 | 40.27622 | -2.98473 | 34955 ft | 428 kts | 250° |
| 2026-05-07 09:53 | 40.25969 | -3.05968 | 34976 ft | 428 kts | 250° |
| 2026-05-07 09:53 | 40.24316 | -3.13456 | 34970 ft | 428 kts | 250° |
| 2026-05-07 09:54 | 40.22666 | -3.20877 | 34967 ft | 428 kts | 250° |
| 2026-05-07 09:54 | 40.20998 | -3.28346 | 34966 ft | 428 kts | 250° |
| 2026-05-07 09:55 | 40.19333 | -3.35809 | 34961 ft | 427 kts | 250° |
| 2026-05-07 09:55 | 40.17668 | -3.43264 | 34966 ft | 427 kts | 250° |
| 2026-05-07 09:56 | 40.16006 | -3.50671 | 34975 ft | 427 kts | 250° |
| 2026-05-07 09:56 | 40.14329 | -3.58123 | 34969 ft | 428 kts | 250° |
| 2026-05-07 09:57 | 40.12642 | -3.65579 | 34965 ft | 428 kts | 250° |
| 2026-05-07 09:57 | 40.10950 | -3.73026 | 34962 ft | 428 kts | 250° |
| 2026-05-07 09:58 | 40.09257 | -3.80475 | 34945 ft | 428 kts | 250° |
| 2026-05-07 09:58 | 40.07566 | -3.87881 | 34938 ft | 429 kts | 251° |